Time;durP1;ratioP1;P1;durP2;ratioP2;P2;SDS_P1;SDS_P2;PMS_P1;PMS_P2;Temp;Humidity;BMP_temperature;BMP_pressure;BME280_temperature;BME280_humidity;BME280_pressure;Samples;Min_cycle;Max_cycle;Signal;HPM_P1;HPM_P2
2022/07/26 00:01:04;;;;;;;1.30;0.70;;;20.70;61.10;;;;;;6106374;23;20101;-80
2022/07/26 00:03:29;;;;;;;2.73;1.10;;;20.70;61.40;;;;;;6099122;23;20077;-80
2022/07/26 00:05:55;;;;;;;1.55;0.90;;;20.60;61.60;;;;;;6076991;23;20018;-80
2022/07/26 00:08:21;;;;;;;1.27;0.60;;;20.70;61.90;;;;;;6102999;23;20427;-80
2022/07/26 00:10:49;;;;;;;5.22;0.60;;;20.60;61.90;;;;;;6097624;23;20264;-80
2022/07/26 00:13:16;;;;;;;2.03;0.73;;;20.60;62.20;;;;;;6107323;23;20129;-81
2022/07/26 00:15:43;;;;;;;2.97;0.90;;;20.60;62.00;;;;;;6079349;23;20018;-80
2022/07/26 00:18:09;;;;;;;2.87;0.90;;;20.60;61.90;;;;;;6099096;23;20014;-80
2022/07/26 00:20:35;;;;;;;2.20;0.70;;;20.60;62.00;;;;;;6099439;23;20708;-81
2022/07/26 00:23:01;;;;;;;1.98;0.80;;;20.60;62.00;;;;;;6106033;23;20065;-81
2022/07/26 00:25:27;;;;;;;1.17;0.67;;;20.50;62.30;;;;;;6103785;23;20010;-80
2022/07/26 00:27:52;;;;;;;1.75;0.60;;;20.50;62.30;;;;;;6072346;23;20018;-81
2022/07/26 00:30:18;;;;;;;2.57;0.90;;;20.50;62.60;;;;;;6107397;23;20021;-80
2022/07/26 00:32:44;;;;;;;1.92;0.63;;;20.40;62.70;;;;;;6095923;23;20239;-80
2022/07/26 00:35:10;;;;;;;2.83;0.60;;;20.40;62.80;;;;;;6110262;23;20024;-81
2022/07/26 00:37:36;;;;;;;4.10;0.95;;;20.40;63.10;;;;;;6069473;23;20329;-80
2022/07/26 00:40:02;;;;;;;3.75;1.02;;;20.40;63.40;;;;;;6083737;23;20440;-80
2022/07/26 00:42:28;;;;;;;2.67;0.80;;;20.40;63.60;;;;;;6094967;23;20020;-80
2022/07/26 00:44:54;;;;;;;1.70;0.60;;;20.40;63.60;;;;;;6079892;23;20335;-80
2022/07/26 00:47:20;;;;;;;4.32;1.00;;;20.40;63.90;;;;;;6107257;23;20074;-80
2022/07/26 00:49:45;;;;;;;2.80;0.95;;;20.40;63.90;;;;;;6090046;23;20014;-80
2022/07/26 00:52:11;;;;;;;4.33;1.10;;;20.40;64.00;;;;;;6108610;23;20522;-80
2022/07/26 00:54:39;;;;;;;2.47;0.75;;;20.40;64.20;;;;;;6102466;23;20014;-81
2022/07/26 00:57:05;;;;;;;2.90;0.80;;;20.40;64.50;;;;;;6072824;23;20018;-81
2022/07/26 00:59:31;;;;;;;3.00;0.90;;;20.40;64.50;;;;;;6101901;23;20049;-80
2022/07/26 01:01:57;;;;;;;2.78;0.90;;;20.40;64.50;;;;;;6110469;23;20025;-81
2022/07/26 01:04:22;;;;;;;2.72;0.77;;;20.40;64.60;;;;;;6094717;23;20033;-80
2022/07/26 01:06:48;;;;;;;3.03;0.90;;;20.40;64.70;;;;;;6076091;23;20585;-80
2022/07/26 01:09:15;;;;;;;3.90;1.00;;;20.40;64.80;;;;;;6103947;23;20018;-80
2022/07/26 01:11:42;;;;;;;3.33;1.02;;;20.50;65.10;;;;;;6100687;23;20419;-80
2022/07/26 01:14:07;;;;;;;2.47;0.80;;;20.50;65.10;;;;;;6090023;23;20081;-80
2022/07/26 01:16:33;;;;;;;4.05;1.00;;;20.50;65.00;;;;;;6110368;23;20049;-80
2022/07/26 01:18:59;;;;;;;3.30;0.90;;;20.50;65.10;;;;;;6096667;23;20018;-79
2022/07/26 01:21:29;;;;;;;3.63;1.10;;;20.50;65.10;;;;;;6109610;23;20010;-80
2022/07/26 01:23:55;;;;;;;4.43;1.10;;;20.50;65.90;;;;;;6105272;23;20014;-80
2022/07/26 01:26:20;;;;;;;2.53;0.70;;;20.60;65.40;;;;;;6105194;23;20343;-80
2022/07/26 01:28:48;;;;;;;4.90;0.90;;;20.60;65.40;;;;;;6104340;23;20018;-80
2022/07/26 01:31:14;;;;;;;3.53;0.90;;;20.50;65.40;;;;;;6077330;23;20020;-81
2022/07/26 01:33:40;;;;;;;4.35;1.00;;;20.60;65.60;;;;;;6109474;23;20086;-80
2022/07/26 01:36:06;;;;;;;3.95;0.90;;;20.50;65.60;;;;;;6093719;23;20014;-80
2022/07/26 01:38:32;;;;;;;3.33;1.10;;;20.60;65.70;;;;;;6078287;23;20756;-80
2022/07/26 01:40:58;;;;;;;4.90;1.10;;;20.50;65.90;;;;;;6076561;23;20021;-80
2022/07/26 01:43:23;;;;;;;2.25;0.77;;;20.60;66.00;;;;;;6077782;23;20013;-80
2022/07/26 01:45:49;;;;;;;3.67;0.77;;;20.60;66.10;;;;;;6104061;23;20284;-80
2022/07/26 01:48:15;;;;;;;2.60;1.00;;;20.60;66.00;;;;;;6111840;23;20010;-80
2022/07/26 01:50:40;;;;;;;4.13;0.90;;;20.50;66.00;;;;;;6095790;23;20081;-81
2022/07/26 01:53:06;;;;;;;2.50;0.90;;;20.60;66.30;;;;;;6104093;23;20096;-81
2022/07/26 01:55:31;;;;;;;3.92;0.82;;;20.50;66.30;;;;;;6079985;23;20309;-80
2022/07/26 01:57:57;;;;;;;3.67;1.20;;;20.50;66.40;;;;;;6102177;23;20223;-80
2022/07/26 02:00:23;;;;;;;3.25;0.93;;;20.50;66.50;;;;;;6111321;23;20038;-81
2022/07/26 02:02:48;;;;;;;3.53;0.90;;;20.60;66.80;;;;;;6100800;23;20022;-80
2022/07/26 02:05:14;;;;;;;4.28;0.90;;;20.50;66.70;;;;;;6102621;23;20494;-80
2022/07/26 02:07:41;;;;;;;3.80;1.00;;;20.50;66.80;;;;;;6096355;23;20009;-80
2022/07/26 02:10:12;;;;;;;2.83;0.80;;;20.50;67.00;;;;;;6103921;23;20958;-81
2022/07/26 02:12:37;;;;;;;3.33;0.90;;;20.40;67.20;;;;;;6109907;23;20510;-80
2022/07/26 02:15:05;;;;;;;3.30;0.90;;;20.40;67.10;;;;;;6078213;23;20160;-81
2022/07/26 02:17:31;;;;;;;2.85;0.82;;;20.40;67.60;;;;;;6082243;23;20026;-80
2022/07/26 02:19:57;;;;;;;2.63;1.00;;;20.40;67.40;;;;;;6076618;23;20710;-81
2022/07/26 02:22:22;;;;;;;4.25;1.10;;;20.30;67.60;;;;;;6073682;23;20089;-80
2022/07/26 02:24:49;;;;;;;2.50;0.83;;;20.40;67.90;;;;;;6102928;23;20456;-80
2022/07/26 02:27:14;;;;;;;3.53;0.90;;;20.30;67.70;;;;;;6080608;23;20013;-80
2022/07/26 02:29:40;;;;;;;5.50;1.00;;;20.30;67.90;;;;;;6102699;23;20348;-80
2022/07/26 02:32:06;;;;;;;2.27;0.90;;;20.30;68.00;;;;;;6083901;23;20490;-80
2022/07/26 02:34:32;;;;;;;3.15;1.05;;;20.30;68.10;;;;;;6081255;23;20097;-80
2022/07/26 02:36:58;;;;;;;4.50;1.00;;;20.30;68.20;;;;;;6070245;23;20028;-80
2022/07/26 02:39:27;;;;;;;3.70;0.90;;;20.30;68.40;;;;;;6110705;23;20097;-81
2022/07/26 02:41:58;;;;;;;3.88;0.90;;;20.40;68.40;;;;;;6103129;23;20152;-80
2022/07/26 02:44:25;;;;;;;3.13;0.90;;;20.40;69.00;;;;;;6105646;23;20018;-80
2022/07/26 02:46:51;;;;;;;4.78;1.02;;;20.40;68.70;;;;;;6101119;23;20143;-81
2022/07/26 02:49:17;;;;;;;3.43;1.20;;;20.40;68.70;;;;;;6081151;23;20288;-80
2022/07/26 02:51:43;;;;;;;4.38;1.10;;;20.40;68.80;;;;;;6104992;23;20014;-80
2022/07/26 02:54:09;;;;;;;4.70;1.30;;;20.40;69.00;;;;;;6070156;23;20018;-80
2022/07/26 02:56:35;;;;;;;4.72;1.15;;;20.40;69.00;;;;;;6082685;23;20037;-80
2022/07/26 02:59:01;;;;;;;2.53;0.90;;;20.40;69.00;;;;;;6100349;23;20490;-80
2022/07/26 03:01:26;;;;;;;3.55;1.00;;;20.40;69.10;;;;;;6105296;23;20021;-80
2022/07/26 03:03:52;;;;;;;5.37;1.00;;;20.40;69.30;;;;;;6079182;23;20205;-80
2022/07/26 03:06:19;;;;;;;4.53;1.10;;;20.40;69.40;;;;;;6081398;23;20156;-80
2022/07/26 03:08:45;;;;;;;2.92;1.20;;;20.40;69.60;;;;;;6097837;23;20037;-80
2022/07/26 03:11:10;;;;;;;4.03;1.10;;;20.40;69.60;;;;;;6082578;23;20010;-81
2022/07/26 03:13:36;;;;;;;4.68;1.10;;;20.40;69.70;;;;;;6105498;23;20454;-80
2022/07/26 03:16:01;;;;;;;3.33;1.00;;;20.40;69.70;;;;;;6101222;23;20212;-80
2022/07/26 03:18:27;;;;;;;3.75;1.52;;;20.40;69.70;;;;;;6085382;23;20025;-79
2022/07/26 03:20:53;;;;;;;3.37;1.10;;;20.40;69.80;;;;;;6076054;23;20243;-81
2022/07/26 03:23:18;;;;;;;6.03;1.10;;;20.40;69.70;;;;;;6106960;23;20010;-80
2022/07/26 03:25:44;;;;;;;3.57;1.00;;;20.50;69.80;;;;;;6095477;23;20006;-80
2022/07/26 03:28:10;;;;;;;3.43;1.10;;;20.50;69.90;;;;;;6107337;23;20029;-81
2022/07/26 03:30:35;;;;;;;4.50;1.10;;;20.50;69.90;;;;;;6102581;23;20016;-80
2022/07/26 03:33:01;;;;;;;3.53;1.00;;;20.50;70.00;;;;;;6077988;23;20076;-80
2022/07/26 03:35:26;;;;;;;3.92;1.05;;;20.50;70.00;;;;;;6107527;23;20017;-81
2022/07/26 03:37:52;;;;;;;4.03;1.00;;;20.50;70.00;;;;;;6101089;23;20379;-81
2022/07/26 03:40:18;;;;;;;3.42;1.05;;;20.50;70.00;;;;;;6086627;23;20581;-80
2022/07/26 03:42:45;;;;;;;4.10;1.17;;;20.50;70.10;;;;;;6111767;23;20054;-80
2022/07/26 03:45:11;;;;;;;5.57;1.20;;;20.50;70.20;;;;;;6076011;23;20419;-80
2022/07/26 03:47:37;;;;;;;4.53;1.02;;;20.50;70.10;;;;;;6079651;23;20414;-80
2022/07/26 03:50:04;;;;;;;3.53;0.98;;;20.50;70.20;;;;;;6076577;23;20021;-80
2022/07/26 03:52:30;;;;;;;3.17;1.27;;;20.50;70.40;;;;;;6079731;23;20064;-80
2022/07/26 03:54:56;;;;;;;4.27;1.20;;;20.50;70.40;;;;;;6081767;23;20017;-80
2022/07/26 03:57:22;;;;;;;3.35;1.20;;;20.50;70.50;;;;;;6072384;23;20713;-80
2022/07/26 03:59:47;;;;;;;3.70;1.20;;;20.40;70.40;;;;;;6111058;23;20005;-80
2022/07/26 04:02:13;;;;;;;5.13;1.40;;;20.40;70.50;;;;;;6089694;23;20022;-80
2022/07/26 04:04:39;;;;;;;3.87;1.17;;;20.50;70.70;;;;;;6084588;23;20091;-80
2022/07/26 04:07:04;;;;;;;3.67;1.08;;;20.50;71.40;;;;;;6108710;23;20021;-81
2022/07/26 04:09:30;;;;;;;4.90;1.10;;;20.40;70.70;;;;;;6079433;23;20399;-80
2022/07/26 04:11:55;;;;;;;3.67;1.10;;;20.50;70.90;;;;;;6092750;23;20076;-80
2022/07/26 04:14:21;;;;;;;4.03;0.82;;;20.50;70.90;;;;;;6081068;23;20212;-81
2022/07/26 04:16:47;;;;;;;3.40;1.20;;;20.50;70.90;;;;;;6104343;23;20025;-81
2022/07/26 04:19:13;;;;;;;5.63;1.10;;;20.50;71.10;;;;;;6101672;23;20010;-80
2022/07/26 04:21:38;;;;;;;4.00;1.10;;;20.40;71.20;;;;;;6110250;23;20084;-80
2022/07/26 04:24:04;;;;;;;3.88;1.25;;;20.50;71.30;;;;;;6071748;23;20185;-80
2022/07/26 04:26:30;;;;;;;5.13;1.23;;;20.50;71.30;;;;;;6109165;23;20155;-81
2022/07/26 04:28:56;;;;;;;4.10;1.10;;;20.40;71.30;;;;;;6066638;23;20609;-81
2022/07/26 04:31:22;;;;;;;4.53;1.20;;;20.40;71.50;;;;;;6071925;23;20240;-80
2022/07/26 04:33:47;;;;;;;4.67;1.10;;;20.40;71.50;;;;;;6104284;23;20060;-81
2022/07/26 04:36:13;;;;;;;4.22;1.23;;;20.40;71.70;;;;;;6106395;23;20271;-80
2022/07/26 04:38:39;;;;;;;4.30;1.20;;;20.40;71.70;;;;;;6084737;23;20021;-80
2022/07/26 04:41:05;;;;;;;4.07;1.10;;;20.50;71.80;;;;;;6103540;23;20034;-80
2022/07/26 04:43:31;;;;;;;3.42;0.95;;;20.40;71.80;;;;;;6069883;23;20313;-80
2022/07/26 04:45:56;;;;;;;4.25;1.10;;;20.50;71.80;;;;;;6106998;23;20042;-80
2022/07/26 04:48:23;;;;;;;4.10;1.10;;;20.50;71.90;;;;;;6070790;23;20465;-80
2022/07/26 04:50:48;;;;;;;3.00;1.42;;;20.40;72.00;;;;;;6105325;23;20010;-80
2022/07/26 04:53:14;;;;;;;3.17;1.17;;;20.50;72.00;;;;;;6106100;23;20029;-80
2022/07/26 04:55:40;;;;;;;6.25;1.10;;;20.50;72.20;;;;;;6107336;23;20463;-81
2022/07/26 04:58:07;;;;;;;4.60;1.10;;;20.50;72.20;;;;;;6097170;23;20061;-80
2022/07/26 05:00:32;;;;;;;2.87;1.20;;;20.50;72.40;;;;;;6091850;23;20152;-81
2022/07/26 05:02:59;;;;;;;4.68;1.10;;;20.50;72.50;;;;;;6091643;23;20018;-81
2022/07/26 05:05:27;;;;;;;3.90;1.13;;;20.50;72.60;;;;;;6105591;23;20021;-81
2022/07/26 05:07:56;;;;;;;3.40;1.20;;;20.60;72.60;;;;;;6098457;23;20010;-81
2022/07/26 05:10:34;;;;;;;3.60;1.17;;;20.60;72.70;;;;;;6105610;23;20396;-80
2022/07/26 05:12:59;;;;;;;4.75;1.30;;;20.60;73.20;;;;;;6107050;23;20021;-80
2022/07/26 05:15:25;;;;;;;4.63;1.10;;;20.60;72.60;;;;;;6071201;23;20439;-81
2022/07/26 05:17:51;;;;;;;3.70;1.00;;;20.70;72.70;;;;;;6098946;23;20419;-80
2022/07/26 05:20:16;;;;;;;3.63;1.15;;;20.70;72.70;;;;;;6081343;23;20013;-81
2022/07/26 05:22:43;;;;;;;3.00;1.20;;;20.70;72.60;;;;;;6111789;23;20169;-80
2022/07/26 05:25:09;;;;;;;5.25;1.50;;;20.70;72.80;;;;;;6099134;23;20092;-81
2022/07/26 05:27:35;;;;;;;4.75;1.40;;;20.70;72.80;;;;;;6082135;23;20018;-80
2022/07/26 05:30:01;;;;;;;5.03;1.45;;;20.80;73.60;;;;;;6072137;23;20628;-80
2022/07/26 05:32:29;;;;;;;5.60;1.60;;;20.80;72.90;;;;;;6078154;23;20009;-80
2022/07/26 05:34:55;;;;;;;6.07;1.38;;;20.80;73.00;;;;;;6077856;23;20017;-80
2022/07/26 05:37:20;;;;;;;4.00;1.13;;;20.80;73.00;;;;;;6082775;23;20182;-80
2022/07/26 05:39:46;;;;;;;4.67;1.30;;;20.80;72.90;;;;;;6076361;23;20241;-81
2022/07/26 05:42:11;;;;;;;3.10;1.20;;;20.90;73.60;;;;;;6104884;23;20314;-80
2022/07/26 05:44:37;;;;;;;4.95;1.15;;;20.90;72.80;;;;;;6086758;23;20063;-81
2022/07/26 05:47:03;;;;;;;4.60;1.30;;;20.90;72.70;;;;;;6090217;23;20478;-80
2022/07/26 05:49:28;;;;;;;3.90;1.10;;;20.90;72.80;;;;;;6102878;23;20235;-81
2022/07/26 05:51:54;;;;;;;5.13;1.20;;;20.90;72.80;;;;;;6108610;23;20014;-81
2022/07/26 05:54:20;;;;;;;4.57;1.27;;;20.90;72.90;;;;;;6081295;23;20217;-81
2022/07/26 05:56:46;;;;;;;5.40;1.37;;;20.90;73.00;;;;;;6101805;23;20670;-80
2022/07/26 05:59:12;;;;;;;6.15;1.35;;;20.90;73.10;;;;;;6104253;23;20351;-80
2022/07/26 06:01:38;;;;;;;3.08;1.30;;;21.00;73.20;;;;;;6097810;23;20439;-80
2022/07/26 06:04:03;;;;;;;4.13;1.20;;;20.90;73.20;;;;;;6101262;23;20089;-81
2022/07/26 06:06:29;;;;;;;3.35;1.20;;;21.00;73.60;;;;;;6111591;23;20104;-81
2022/07/26 06:08:55;;;;;;;3.77;1.53;;;21.10;74.00;;;;;;6107473;23;20006;-81
2022/07/26 06:11:20;;;;;;;5.18;1.75;;;21.20;74.20;;;;;;6101263;23;20251;-80
2022/07/26 06:13:46;;;;;;;3.10;1.23;;;21.30;74.30;;;;;;6104719;23;20014;-81
2022/07/26 06:16:12;;;;;;;4.90;1.20;;;21.30;74.00;;;;;;6099070;23;20313;-81
2022/07/26 06:18:38;;;;;;;2.75;1.17;;;21.40;73.90;;;;;;6099559;23;20085;-81
2022/07/26 06:21:04;;;;;;;4.63;1.50;;;21.50;73.90;;;;;;6075582;23;20596;-80
2022/07/26 06:23:30;;;;;;;6.32;1.40;;;21.60;73.60;;;;;;6079721;23;20384;-81
2022/07/26 06:25:56;;;;;;;5.88;1.27;;;21.60;73.30;;;;;;6082667;23;20049;-81
2022/07/26 06:28:21;;;;;;;3.87;1.53;;;21.70;73.10;;;;;;6067908;23;20084;-81
2022/07/26 06:30:47;;;;;;;3.80;1.50;;;21.70;73.10;;;;;;6069309;23;20037;-81
2022/07/26 06:33:14;;;;;;;4.32;1.50;;;21.70;73.10;;;;;;6077773;23;20018;-81
2022/07/26 06:35:41;;;;;;;4.23;1.37;;;21.70;73.50;;;;;;6073845;23;20511;-81
2022/07/26 06:38:08;;;;;;;3.40;1.45;;;21.80;73.60;;;;;;6085912;23;20021;-81
2022/07/26 06:40:34;;;;;;;2.72;1.25;;;21.90;73.80;;;;;;6108224;23;20128;-81
2022/07/26 06:43:01;;;;;;;5.63;1.50;;;22.00;73.80;;;;;;6101237;23;20223;-81
2022/07/26 06:45:27;;;;;;;4.82;1.45;;;22.10;74.00;;;;;;6081308;23;20014;-81
2022/07/26 06:47:52;;;;;;;3.43;1.30;;;22.20;74.00;;;;;;6093198;23;20018;-80
2022/07/26 06:50:18;;;;;;;3.08;1.13;;;22.30;74.00;;;;;;6112514;23;20026;-81
2022/07/26 06:52:44;;;;;;;5.07;1.50;;;22.40;73.80;;;;;;6099969;23;20269;-81
2022/07/26 06:55:09;;;;;;;4.80;1.33;;;22.60;73.60;;;;;;6079785;23;20022;-81
2022/07/26 06:57:35;;;;;;;2.97;1.07;;;22.70;73.40;;;;;;6109490;23;20041;-81
2022/07/26 07:00:04;;;;;;;2.47;1.17;;;22.80;73.50;;;;;;6100352;23;20156;-81
2022/07/26 07:02:29;;;;;;;2.47;1.10;;;22.90;73.20;;;;;;6098964;23;20022;-80
2022/07/26 07:04:55;;;;;;;3.60;1.00;;;23.00;73.10;;;;;;6095666;23;20307;-81
2022/07/26 07:07:21;;;;;;;2.40;1.03;;;23.10;72.90;;;;;;6063574;23;20335;-80
2022/07/26 07:09:46;;;;;;;3.13;1.30;;;23.30;72.80;;;;;;6111191;23;20695;-81
2022/07/26 07:12:14;;;;;;;4.63;1.30;;;23.40;72.40;;;;;;6073199;23;20096;-81
2022/07/26 07:14:40;;;;;;;2.40;1.15;;;23.50;72.00;;;;;;6074737;23;20018;-80
2022/07/26 07:17:06;;;;;;;3.88;1.27;;;23.50;71.30;;;;;;6104826;23;20028;-81
2022/07/26 07:19:34;;;;;;;2.83;1.20;;;23.50;70.80;;;;;;6089425;23;20045;-81
2022/07/26 07:22:00;;;;;;;3.55;1.00;;;23.60;70.40;;;;;;6105499;23;20057;-80
2022/07/26 07:24:25;;;;;;;3.80;1.10;;;23.50;70.20;;;;;;6099501;23;20228;-81
2022/07/26 07:26:51;;;;;;;2.13;1.10;;;23.50;70.10;;;;;;6073928;23;20491;-80
2022/07/26 07:29:19;;;;;;;2.55;1.10;;;23.50;69.90;;;;;;6106970;23;20252;-81
2022/07/26 07:31:46;;;;;;;2.55;1.20;;;23.50;69.80;;;;;;6068419;23;20022;-81
2022/07/26 07:34:13;;;;;;;2.00;0.88;;;23.50;69.70;;;;;;6072212;23;20014;-81
2022/07/26 07:36:38;;;;;;;2.88;1.15;;;23.40;69.60;;;;;;6081380;23;20236;-81
2022/07/26 07:39:04;;;;;;;3.83;1.17;;;23.40;69.60;;;;;;6102630;23;20068;-81
2022/07/26 07:41:32;;;;;;;2.87;1.20;;;23.40;69.60;;;;;;6073614;23;20025;-80
2022/07/26 07:44:01;;;;;;;3.40;1.20;;;23.40;69.60;;;;;;6078247;23;20233;-82
2022/07/26 07:46:27;;;;;;;3.25;1.10;;;23.40;69.50;;;;;;6070840;23;20014;-81
2022/07/26 07:48:52;;;;;;;3.63;1.17;;;23.40;69.70;;;;;;6064562;23;20014;-81
2022/07/26 07:51:18;;;;;;;3.43;1.03;;;23.50;69.70;;;;;;6105792;23;20113;-81
2022/07/26 07:53:44;;;;;;;2.40;1.20;;;23.50;69.70;;;;;;6075430;23;20267;-81
2022/07/26 07:56:09;;;;;;;2.07;1.00;;;23.50;69.60;;;;;;6097233;23;20141;-81
2022/07/26 07:58:35;;;;;;;2.65;1.00;;;23.60;69.50;;;;;;6104123;23;20232;-81
2022/07/26 08:01:01;;;;;;;2.43;1.20;;;23.60;69.20;;;;;;6099357;23;20017;-81
2022/07/26 08:03:27;;;;;;;2.20;1.08;;;23.60;69.10;;;;;;6095529;23;20025;-81
2022/07/26 08:05:52;;;;;;;2.33;0.83;;;23.60;69.00;;;;;;6095158;23;20010;-81
2022/07/26 08:08:19;;;;;;;3.80;1.00;;;23.70;69.10;;;;;;6107114;23;20418;-80
2022/07/26 08:10:44;;;;;;;2.92;1.35;;;23.70;69.00;;;;;;6094311;23;20100;-81
2022/07/26 08:13:10;;;;;;;3.03;1.10;;;23.70;68.90;;;;;;6111177;23;20041;-78
2022/07/26 08:15:36;;;;;;;2.45;1.08;;;23.70;68.80;;;;;;6085636;23;20350;-78
2022/07/26 08:18:01;;;;;;;2.70;1.20;;;23.80;68.80;;;;;;6061490;23;20028;-78
2022/07/26 08:20:27;;;;;;;1.80;1.20;;;23.90;68.80;;;;;;6090025;23;20260;-79
2022/07/26 08:22:53;;;;;;;2.63;1.10;;;23.90;68.80;;;;;;6089264;23;20322;-78
2022/07/26 08:25:19;;;;;;;5.40;1.40;;;23.90;68.80;;;;;;6071461;23;20073;-78
2022/07/26 08:27:44;;;;;;;4.80;1.23;;;24.00;68.80;;;;;;6069905;23;20088;-77
2022/07/26 08:30:10;;;;;;;4.40;1.55;;;24.00;68.80;;;;;;6108603;23;20455;-78
2022/07/26 08:32:36;;;;;;;2.40;1.40;;;24.10;68.60;;;;;;6090762;23;20013;-78
2022/07/26 08:35:02;;;;;;;3.20;1.80;;;24.10;68.50;;;;;;6072682;23;20017;-79
2022/07/26 08:37:27;;;;;;;2.40;1.63;;;24.20;68.50;;;;;;6064166;23;20014;-78
2022/07/26 08:39:53;;;;;;;3.07;1.77;;;24.30;68.70;;;;;;6102256;23;20317;-79
2022/07/26 08:42:21;;;;;;;2.90;2.07;;;24.40;68.70;;;;;;6109024;23;20006;-78
2022/07/26 08:44:47;;;;;;;4.07;2.10;;;24.50;68.40;;;;;;6064360;23;20112;-79
2022/07/26 08:47:15;;;;;;;3.40;2.00;;;24.60;68.20;;;;;;6071529;23;20021;-78
2022/07/26 08:49:42;;;;;;;2.63;1.80;;;24.70;68.10;;;;;;6092928;23;20021;-79
2022/07/26 08:52:09;;;;;;;2.85;2.05;;;24.80;68.20;;;;;;6093117;23;20025;-78
2022/07/26 08:54:35;;;;;;;3.30;1.97;;;24.90;68.10;;;;;;6084921;23;20076;-78
2022/07/26 08:57:01;;;;;;;3.92;2.20;;;25.00;67.90;;;;;;6105040;23;20041;-79
2022/07/26 08:59:29;;;;;;;3.45;2.42;;;25.10;67.50;;;;;;6103005;23;20373;-79
2022/07/26 09:01:57;;;;;;;3.90;2.00;;;25.20;67.30;;;;;;6102992;23;20259;-77
2022/07/26 09:04:25;;;;;;;2.78;2.00;;;25.30;67.10;;;;;;6088113;23;20113;-78
2022/07/26 09:07:09;;;;;;;3.33;1.67;;;25.50;67.20;;;;;;6084256;23;20311;-78
2022/07/26 09:09:37;;;;;;;4.07;2.33;;;25.60;67.30;;;;;;6102700;23;20014;-79
2022/07/26 09:12:16;;;;;;;3.25;1.90;;;25.90;68.70;;;;;;6100295;23;20014;-78
2022/07/26 09:14:41;;;;;;;3.47;1.60;;;26.20;67.30;;;;;;6098234;23;20026;-78
2022/07/26 09:17:07;;;;;;;3.73;1.50;;;26.60;69.20;;;;;;6093062;23;20014;-78
2022/07/26 09:19:33;;;;;;;3.60;1.50;;;26.90;68.70;;;;;;6051037;23;20014;-78
2022/07/26 09:22:13;;;;;;;2.00;1.50;;;27.30;67.70;;;;;;6089970;23;20044;-78
2022/07/26 09:24:44;;;;;;;1.95;1.10;;;27.60;65.60;;;;;;6095102;23;20017;-79
2022/07/26 09:27:14;;;;;;;1.92;1.15;;;28.00;66.30;;;;;;6079069;23;20017;-79
2022/07/26 09:29:53;;;;;;;2.58;1.17;;;28.40;67.00;;;;;;6072207;23;20028;-79
2022/07/26 09:32:22;;;;;;;1.48;1.10;;;28.90;63.50;;;;;;6102302;23;20014;-80
2022/07/26 09:35:07;;;;;;;2.63;1.10;;;29.40;66.30;;;;;;6070159;23;20206;-79
2022/07/26 09:37:35;;;;;;;2.97;1.27;;;30.00;65.70;;;;;;6086980;23;20084;-78
2022/07/26 09:40:04;;;;;;;1.45;1.15;;;30.50;66.00;;;;;;6080690;23;20018;-79
2022/07/26 09:42:29;;;;;;;1.83;1.10;;;31.10;64.50;;;;;;6102595;23;20065;-79
2022/07/26 09:44:56;;;;;;;2.27;1.30;;;31.50;63.70;;;;;;6101366;23;20006;-79
2022/07/26 09:47:33;;;;;;;2.28;1.50;;;31.90;61.60;;;;;;6088052;23;20024;-79
2022/07/26 09:50:09;;;;;;;2.17;1.33;;;32.10;59.40;;;;;;6100297;23;20017;-79
2022/07/26 09:52:36;;;;;;;3.00;1.52;;;32.20;56.00;;;;;;6095642;23;20296;-79
2022/07/26 09:55:05;;;;;;;2.42;1.38;;;32.10;55.60;;;;;;6063286;23;20021;-78
2022/07/26 09:57:33;;;;;;;2.67;1.30;;;31.90;53.90;;;;;;6077000;23;20010;-79
2022/07/26 10:00:04;;;;;;;2.03;1.30;;;31.60;54.10;;;;;;6107559;23;20358;-79
2022/07/26 10:02:31;;;;;;;1.70;1.35;;;31.20;53.50;;;;;;6073102;23;20328;-79
2022/07/26 10:04:57;;;;;;;2.05;1.27;;;30.90;53.80;;;;;;6112524;23;20064;-78
2022/07/26 10:07:23;;;;;;;2.20;1.37;;;30.60;53.60;;;;;;6090620;23;20482;-79
2022/07/26 10:09:57;;;;;;;2.72;1.30;;;30.40;53.30;;;;;;6097540;23;20017;-78
2022/07/26 10:12:27;;;;;;;3.05;1.30;;;30.10;52.40;;;;;;6078227;23;20447;-79
2022/07/26 10:14:54;;;;;;;1.45;1.30;;;29.80;53.00;;;;;;6103204;23;20348;-79
2022/07/26 10:17:28;;;;;;;1.83;1.10;;;29.70;53.90;;;;;;6108296;23;20657;-79
2022/07/26 10:20:03;;;;;;;2.05;1.13;;;29.60;53.10;;;;;;6110747;23;20491;-78
2022/07/26 10:22:40;;;;;;;1.13;1.00;;;29.50;53.40;;;;;;6071032;23;20010;-79
2022/07/26 10:25:18;;;;;;;2.45;1.00;;;29.40;53.80;;;;;;6099307;23;20251;-78
2022/07/26 10:27:47;;;;;;;1.77;1.00;;;29.40;53.10;;;;;;6107873;23;20069;-79
2022/07/26 10:30:18;;;;;;;1.30;0.80;;;29.30;54.00;;;;;;6104084;23;20025;-78
2022/07/26 10:33:00;;;;;;;1.58;0.77;;;29.30;53.50;;;;;;6114065;23;20013;-78
2022/07/26 10:35:43;;;;;;;1.98;1.10;;;29.30;53.20;;;;;;6093341;23;20515;-78
2022/07/26 10:38:21;;;;;;;1.60;1.02;;;29.10;53.70;;;;;;6062633;23;20065;-78
2022/07/26 10:41:02;;;;;;;1.83;0.90;;;29.00;53.60;;;;;;6097010;23;20021;-78
2022/07/26 10:43:29;;;;;;;1.43;0.90;;;28.80;53.10;;;;;;6075717;23;20014;-78
2022/07/26 10:46:28;;;;;;;0.90;0.73;;;28.60;53.20;;;;;;6085129;23;20006;-79
2022/07/26 10:48:58;;;;;;;1.02;0.90;;;28.20;53.30;;;;;;6036595;23;20459;-78
2022/07/26 10:51:26;;;;;;;2.25;0.80;;;28.00;53.60;;;;;;6068376;23;20209;-79
2022/07/26 10:54:18;;;;;;;0.98;0.70;;;27.70;53.90;;;;;;6068162;23;20025;-78
2022/07/26 10:56:44;;;;;;;0.73;0.73;;;27.50;55.20;;;;;;6042160;23;20292;-78
2022/07/26 10:59:09;;;;;;;1.08;0.65;;;27.30;54.80;;;;;;6105080;23;20010;-79
2022/07/26 11:01:37;;;;;;;1.53;0.77;;;27.20;55.40;;;;;;6074717;23;20368;-79
2022/07/26 11:04:04;;;;;;;1.58;0.80;;;27.10;56.40;;;;;;6111075;23;20013;-80
2022/07/26 11:06:30;;;;;;;0.93;0.60;;;27.10;57.30;;;;;;6088638;23;20177;-79
2022/07/26 11:08:55;;;;;;;1.10;0.80;;;27.30;57.80;;;;;;6069915;23;20066;-79
2022/07/26 11:11:32;;;;;;;1.48;0.80;;;27.40;57.90;;;;;;6088954;23;20014;-78
2022/07/26 11:14:13;;;;;;;1.20;0.90;;;27.60;57.40;;;;;;6073725;23;20089;-78
2022/07/26 11:16:42;;;;;;;1.10;0.80;;;27.80;57.10;;;;;;6108365;23;20017;-79
2022/07/26 11:19:26;;;;;;;1.05;0.77;;;27.90;56.90;;;;;;6081844;23;20013;-78
2022/07/26 11:21:57;;;;;;;0.60;0.60;;;28.00;55.80;;;;;;6111722;23;20014;-78
2022/07/26 11:24:25;;;;;;;0.60;0.60;;;28.10;55.40;;;;;;6093789;23;20165;-78
2022/07/26 11:26:51;;;;;;;0.47;0.47;;;28.10;55.50;;;;;;6059581;23;20296;-78
2022/07/26 11:29:27;;;;;;;2.90;0.60;;;28.00;55.20;;;;;;6104341;23;20021;-78
2022/07/26 11:31:53;;;;;;;0.50;0.50;;;28.00;54.80;;;;;;6103007;23;20284;-78
2022/07/26 11:34:23;;;;;;;0.50;0.50;;;27.90;55.30;;;;;;6103385;23;20041;-78
2022/07/26 11:36:51;;;;;;;0.60;0.53;;;28.00;55.30;;;;;;6106904;23;20014;-78
2022/07/26 11:39:21;;;;;;;0.50;0.50;;;28.00;55.50;;;;;;6075340;23;20025;-79
2022/07/26 11:41:48;;;;;;;0.70;0.70;;;28.10;55.40;;;;;;6088162;23;20996;-79
2022/07/26 11:44:20;;;;;;;0.80;0.60;;;28.20;55.40;;;;;;6082198;23;20025;-78
2022/07/26 11:46:46;;;;;;;0.85;0.60;;;28.20;54.80;;;;;;6096692;23;20355;-78
2022/07/26 11:49:24;;;;;;;0.70;0.70;;;28.30;55.00;;;;;;6107035;23;20021;-78
2022/07/26 11:51:55;;;;;;;0.60;0.60;;;28.30;54.40;;;;;;6109319;23;20022;-78
2022/07/26 11:54:26;;;;;;;0.60;0.60;;;28.30;54.70;;;;;;6081857;23;20352;-79
2022/07/26 11:57:00;;;;;;;0.60;0.60;;;28.30;54.50;;;;;;6095064;23;20219;-78
2022/07/26 11:59:36;;;;;;;0.50;0.50;;;28.30;54.00;;;;;;6066559;23;20065;-79
2022/07/26 12:02:04;;;;;;;0.47;0.47;;;28.30;53.90;;;;;;6079169;23;20109;-79
2022/07/26 12:04:38;;;;;;;0.57;0.50;;;28.20;54.20;;;;;;6102658;23;20018;-79
2022/07/26 12:07:15;;;;;;;0.50;0.50;;;28.10;54.30;;;;;;6077910;23;20482;-78
2022/07/26 12:09:47;;;;;;;0.98;0.55;;;28.10;54.30;;;;;;6106829;23;20013;-79
2022/07/26 12:12:28;;;;;;;0.95;0.50;;;28.00;54.40;;;;;;6074989;23;20073;-79
2022/07/26 12:15:03;;;;;;;0.40;0.40;;;28.00;54.50;;;;;;6089589;23;20014;-79
2022/07/26 12:17:29;;;;;;;0.50;0.50;;;27.80;54.50;;;;;;6100907;23;20071;-78
2022/07/26 12:19:55;;;;;;;1.25;0.60;;;27.80;54.80;;;;;;6100146;23;20545;-79
2022/07/26 12:22:22;;;;;;;0.70;0.60;;;27.80;54.70;;;;;;6104680;23;20006;-79
2022/07/26 12:24:50;;;;;;;0.53;0.53;;;27.70;54.70;;;;;;6071839;23;20209;-78
2022/07/26 12:27:22;;;;;;;0.75;0.60;;;27.80;54.80;;;;;;6097733;23;20018;-79
2022/07/26 12:30:07;;;;;;;0.85;0.70;;;27.80;55.10;;;;;;6065025;23;20374;-77
2022/07/26 12:32:36;;;;;;;0.70;0.50;;;27.90;54.90;;;;;;6077443;23;20017;-77
2022/07/26 12:35:05;;;;;;;0.57;0.50;;;27.90;55.20;;;;;;6106695;23;20356;-80
2022/07/26 12:37:38;;;;;;;0.60;0.60;;;27.90;55.10;;;;;;6102225;23;20263;-80
2022/07/26 12:40:10;;;;;;;0.85;0.60;;;27.90;55.30;;;;;;6076384;23;20013;-79
2022/07/26 12:43:03;;;;;;;0.73;0.70;;;28.00;55.50;;;;;;6095852;23;20098;-79
2022/07/26 12:45:31;;;;;;;0.60;0.60;;;28.10;55.80;;;;;;6056292;23;20411;-79
2022/07/26 12:47:59;;;;;;;0.75;0.75;;;28.10;55.90;;;;;;6072620;23;20386;-79
2022/07/26 12:50:26;;;;;;;0.60;0.60;;;28.20;55.90;;;;;;6102966;23;20010;-78